Holloway, Minnesota
Current Conditions -  °F | °C
As of 12:54 PM on Wednesday 26 Nov 2014 (Local Time) from KAQP Reporting Station
Haze Haze  
Wind Chill: -6°   Ceiling: 800
Heat Index: 12°   Visibility: 4mi
Dew Point:   Wind: 21mph
Humidity: 79%   Direction: 330°NNW
Pressure: 30.29"   Gusts: NA
Location:  45.25°N, 95.91°W
Report Text: KAQP 261854Z AUTO 33018KT 4SM HZ OVC008 M11/M14 A3029 RMK AO2
Loading
Personal Weather Stations






























Interactive Weather Map New forecast layout! Learn more

10-Day Weather Forecast

Advertisements
Track Severe Weather on mobile